»·PEaware :: HADAI KSAN-KSBP

HADAI :: KSAN-KSBP

FLIGHT INFORMATION

Flight Status: Arrived
Operator: Unknown
More flights by this operator :: More flights under this callsign
Pilot: Anonymous 30101 (30101)
Aircraft: SOCATA TBM-900
(TBM9)
More flights by this aircraft type
Origin: KSAN San Diego Intl-Lindbergh
United States
Destination: KSBP San Luis Co Regl
United States
More flights between these airports :: More routes between these airports
Route: PADRZ2 PADRZ SXC WEEZL RZS
File this flight plan on PilotEdge
Remarks:
Altitude:
(Current/Filed)
22,000ft
Speed:
(Current/Filed)
200kts
Departed: 29-Jul-20 08:41 AM
Arrived: 29-Jul-20 09:53 AM
Distance/Time
Traveled:
228nm/1:12
Distance/Time
To Go:
Arrived

Flight Plot

Page will automatically refresh every two minutes.


Map Options




Map Legend


Flown Route
Filed Route
Departure Airport
Arrival Airport
Navaid (VOR, NDB)
Fix

Horizontal Profiles

Position Reports

Time Latitude Longitude Heading Altitude Ground
Speed
29-Jul-20 08:21 32.733730 -117.179807 160 19ft 0kts
29-Jul-20 08:22 32.733730 -117.179807 160 19ft 0kts
29-Jul-20 08:23 32.733730 -117.179807 160 19ft 0kts
29-Jul-20 08:24 32.733730 -117.179807 160 19ft 0kts
29-Jul-20 08:25 32.733730 -117.179807 160 19ft 0kts
29-Jul-20 08:26 32.733730 -117.179807 160 19ft 0kts
29-Jul-20 08:27 32.733730 -117.179807 160 19ft 0kts
29-Jul-20 08:28 32.733730 -117.179807 160 19ft 0kts
29-Jul-20 08:29 32.733730 -117.179807 160 19ft 0kts
29-Jul-20 08:30 32.733730 -117.179807 160 19ft 0kts
29-Jul-20 08:31 32.733730 -117.179807 160 19ft 0kts
29-Jul-20 08:32 32.733730 -117.179807 160 19ft 0kts
29-Jul-20 08:33 32.733730 -117.179807 160 19ft 0kts
29-Jul-20 08:34 32.733730 -117.179807 160 19ft 0kts
29-Jul-20 08:35 32.733730 -117.179807 160 19ft 0kts
29-Jul-20 08:36 32.732945 -117.179666 204 19ft 9kts
29-Jul-20 08:37 32.731459 -117.176739 152 19ft 7kts
29-Jul-20 08:38 32.731346 -117.176693 168 19ft 0kts
29-Jul-20 08:39 32.730567 -117.176894 220 19ft 10kts
29-Jul-20 08:40 32.735406 -117.200451 291 621ft 122kts
29-Jul-20 08:41 32.754773 -117.236132 303 2736ft 126kts
29-Jul-20 08:42 32.773643 -117.270900 300 4730ft 128kts
29-Jul-20 08:43 32.793172 -117.306978 298 6571ft 135kts
29-Jul-20 08:44 32.816127 -117.343976 301 8766ft 145kts
29-Jul-20 08:45 32.841475 -117.383314 301 10781ft 156kts
29-Jul-20 08:46 32.868790 -117.425690 301 12634ft 166kts
29-Jul-20 08:47 32.896974 -117.469453 300 14432ft 168kts
29-Jul-20 08:48 32.929176 -117.519617 302 15036ft 230kts
29-Jul-20 08:49 32.971770 -117.585850 302 16029ft 232kts
29-Jul-20 08:50 33.002150 -117.633339 300 18978ft 172kts
29-Jul-20 08:51 33.031748 -117.679627 300 20685ft 178kts
29-Jul-20 08:52 33.062154 -117.727207 302 22017ft 196kts
29-Jul-20 08:53 33.110559 -117.777156 314 22009ft 254kts
29-Jul-20 08:54 33.166706 -117.834254 314 21999ft 280kts
29-Jul-20 08:55 33.209531 -117.909364 286 22001ft 280kts
29-Jul-20 08:56 33.238018 -117.996935 287 22007ft 284kts
29-Jul-20 08:57 33.266899 -118.085609 287 22016ft 286kts
29-Jul-20 08:58 33.295721 -118.174345 287 22015ft 286kts
29-Jul-20 08:59 33.324520 -118.263264 287 22014ft 286kts
29-Jul-20 09:00 33.353275 -118.352301 287 22016ft 286kts
29-Jul-20 09:01 33.387572 -118.438055 306 22023ft 292kts
29-Jul-20 09:02 33.440290 -118.512701 306 22016ft 293kts
29-Jul-20 09:03 33.492760 -118.587491 306 22016ft 293kts
29-Jul-20 09:04 33.545097 -118.662256 305 22019ft 293kts
29-Jul-20 09:05 33.597472 -118.737231 305 22019ft 293kts
29-Jul-20 09:06 33.649966 -118.812534 305 22014ft 294kts
29-Jul-20 09:07 33.702425 -118.887949 305 22012ft 295kts
29-Jul-20 09:09 33.755042 -118.963746 305 22013ft 296kts
29-Jul-20 09:10 33.811246 -119.036742 315 22021ft 300kts
29-Jul-20 09:11 33.874521 -119.102499 315 22037ft 299kts
29-Jul-20 09:12 33.937304 -119.167979 315 22037ft 299kts
29-Jul-20 09:13 34.000156 -119.233664 315 22032ft 299kts
29-Jul-20 09:14 34.062811 -119.299276 315 22022ft 299kts
29-Jul-20 09:15 34.124352 -119.363847 315 22015ft 297kts
29-Jul-20 09:16 34.185998 -119.428661 315 22015ft 296kts
29-Jul-20 09:17 34.247135 -119.493056 315 22046ft 289kts
29-Jul-20 09:18 34.301231 -119.550170 314 21256ft 249kts
29-Jul-20 09:19 34.352682 -119.604604 315 19742ft 245kts
29-Jul-20 09:20 34.403515 -119.658446 315 18237ft 242kts
29-Jul-20 09:21 34.453550 -119.711531 315 16747ft 239kts
29-Jul-20 09:22 34.503262 -119.764357 316 15252ft 237kts
29-Jul-20 09:23 34.552134 -119.816674 316 13764ft 234kts
29-Jul-20 09:24 34.593904 -119.876126 309 12268ft 231kts
29-Jul-20 09:25 34.637066 -119.932735 314 10778ft 229kts
29-Jul-20 09:26 34.681977 -119.987547 314 9291ft 233kts
29-Jul-20 09:27 34.726436 -120.041317 314 8995ft 216kts
29-Jul-20 09:28 34.768109 -120.091632 314 8997ft 209kts
29-Jul-20 09:28 34.802155 -120.132714 314 8997ft 208kts
29-Jul-20 09:30 34.849624 -120.189975 314 8994ft 207kts
29-Jul-20 09:30 34.883527 -120.230862 314 8991ft 207kts
29-Jul-20 09:31 34.924289 -120.280176 314 8990ft 206kts
29-Jul-20 09:33 34.971445 -120.337837 314 8990ft 205kts
29-Jul-20 09:33 34.999045 -120.384482 302 8990ft 205kts
29-Jul-20 09:34 35.030044 -120.444434 302 9001ft 223kts
29-Jul-20 09:35 35.064249 -120.510781 302 8992ft 237kts
29-Jul-20 09:36 35.099425 -120.579003 302 8990ft 239kts
29-Jul-20 09:37 35.132899 -120.643913 302 8991ft 240kts
29-Jul-20 09:38 35.169290 -120.714478 302 8991ft 240kts
29-Jul-20 09:39 35.204776 -120.783275 302 8759ft 235kts
29-Jul-20 09:40 35.237613 -120.847079 302 7719ft 208kts
29-Jul-20 09:41 35.267787 -120.905674 302 6336ft 199kts
29-Jul-20 09:42 35.299700 -120.958932 341 4803ft 195kts
29-Jul-20 09:43 35.348109 -120.939924 22 3967ft 162kts
29-Jul-20 09:44 35.361732 -120.900152 72 3476ft 135kts
29-Jul-20 09:45 35.360629 -120.857589 112 3000ft 127kts
29-Jul-20 09:46 35.339956 -120.820879 125 3020ft 119kts
29-Jul-20 09:47 35.320929 -120.787652 124 2927ft 114kts
29-Jul-20 09:48 35.303829 -120.757668 124 2369ft 108kts
29-Jul-20 09:49 35.287286 -120.728658 124 1816ft 104kts
29-Jul-20 09:50 35.270256 -120.698791 124 1246ft 108kts
29-Jul-20 09:51 35.252833 -120.668213 124 661ft 110kts
29-Jul-20 09:52 35.237316 -120.640903 126 215ft 17kts
29-Jul-20 09:53 35.235358 -120.636047 65 215ft 0kts
29-Jul-20 09:54 35.237765 -120.639368 326 215ft 11kts
29-Jul-20 09:55 35.238490 -120.639991 182 215ft 0kts
29-Jul-20 09:56 35.238490 -120.639991 182 215ft 0kts
29-Jul-20 09:57 35.238490 -120.639991 182 215ft 0kts

Navigation Log

Ident Type
Flight plan parsing failed, navigation log unavailable